sensor_id;sensor_type;location;lat;lon;timestamp;P1;durP1;ratioP1;P2;durP2;ratioP2
9904;SDS011;4991;43.566;27.820;2023-03-15T00:02:03;7.83;;;5.13;;
9904;SDS011;4991;43.566;27.820;2023-03-15T00:04:29;14.07;;;5.33;;
9904;SDS011;4991;43.566;27.820;2023-03-15T00:06:56;6.30;;;5.47;;
9904;SDS011;4991;43.566;27.820;2023-03-15T00:09:23;6.07;;;4.80;;
9904;SDS011;4991;43.566;27.820;2023-03-15T00:11:49;6.73;;;5.17;;
9904;SDS011;4991;43.566;27.820;2023-03-15T00:14:15;5.90;;;4.53;;
9904;SDS011;4991;43.566;27.820;2023-03-15T00:16:42;7.20;;;5.00;;
9904;SDS011;4991;43.566;27.820;2023-03-15T00:19:08;6.90;;;5.60;;
9904;SDS011;4991;43.566;27.820;2023-03-15T00:21:34;9.30;;;5.83;;
9904;SDS011;4991;43.566;27.820;2023-03-15T00:24:00;8.27;;;5.70;;
9904;SDS011;4991;43.566;27.820;2023-03-15T00:26:25;10.50;;;5.90;;
9904;SDS011;4991;43.566;27.820;2023-03-15T00:28:51;8.50;;;5.60;;
9904;SDS011;4991;43.566;27.820;2023-03-15T00:31:18;5.67;;;5.07;;
9904;SDS011;4991;43.566;27.820;2023-03-15T00:33:45;8.73;;;5.47;;
9904;SDS011;4991;43.566;27.820;2023-03-15T00:36:11;6.77;;;5.30;;
9904;SDS011;4991;43.566;27.820;2023-03-15T00:38:38;6.37;;;5.10;;
9904;SDS011;4991;43.566;27.820;2023-03-15T00:41:11;8.50;;;4.77;;
9904;SDS011;4991;43.566;27.820;2023-03-15T00:43:38;8.40;;;4.90;;
9904;SDS011;4991;43.566;27.820;2023-03-15T00:46:04;10.90;;;5.03;;
9904;SDS011;4991;43.566;27.820;2023-03-15T00:48:30;6.93;;;5.00;;
9904;SDS011;4991;43.566;27.820;2023-03-15T00:53:35;9.23;;;5.17;;
9904;SDS011;4991;43.566;27.820;2023-03-15T00:56:03;6.93;;;5.37;;
9904;SDS011;4991;43.566;27.820;2023-03-15T00:58:34;10.33;;;5.30;;
9904;SDS011;4991;43.566;27.820;2023-03-15T01:01:03;7.40;;;4.30;;
9904;SDS011;4991;43.566;27.820;2023-03-15T01:03:30;8.83;;;5.00;;
9904;SDS011;4991;43.566;27.820;2023-03-15T01:05:56;7.07;;;4.73;;
9904;SDS011;4991;43.566;27.820;2023-03-15T01:08:22;6.73;;;4.53;;
9904;SDS011;4991;43.566;27.820;2023-03-15T01:10:48;9.93;;;4.43;;
9904;SDS011;4991;43.566;27.820;2023-03-15T01:13:14;10.97;;;4.53;;
9904;SDS011;4991;43.566;27.820;2023-03-15T01:15:43;10.13;;;4.40;;
9904;SDS011;4991;43.566;27.820;2023-03-15T01:18:10;7.93;;;4.37;;
9904;SDS011;4991;43.566;27.820;2023-03-15T01:20:36;10.33;;;4.70;;
9904;SDS011;4991;43.566;27.820;2023-03-15T01:23:01;6.33;;;4.00;;
9904;SDS011;4991;43.566;27.820;2023-03-15T01:25:27;4.73;;;4.00;;
9904;SDS011;4991;43.566;27.820;2023-03-15T01:27:53;10.73;;;4.47;;
9904;SDS011;4991;43.566;27.820;2023-03-15T01:30:18;6.30;;;3.97;;
9904;SDS011;4991;43.566;27.820;2023-03-15T01:32:44;12.17;;;4.30;;
9904;SDS011;4991;43.566;27.820;2023-03-15T01:35:10;5.03;;;4.03;;
9904;SDS011;4991;43.566;27.820;2023-03-15T01:37:35;7.57;;;4.50;;
9904;SDS011;4991;43.566;27.820;2023-03-15T01:40:01;5.37;;;3.87;;
9904;SDS011;4991;43.566;27.820;2023-03-15T01:42:32;5.20;;;3.40;;
9904;SDS011;4991;43.566;27.820;2023-03-15T01:44:58;5.87;;;3.97;;
9904;SDS011;4991;43.566;27.820;2023-03-15T01:47:24;6.40;;;4.17;;
9904;SDS011;4991;43.566;27.820;2023-03-15T01:49:52;5.00;;;3.70;;
9904;SDS011;4991;43.566;27.820;2023-03-15T01:52:25;6.63;;;3.40;;
9904;SDS011;4991;43.566;27.820;2023-03-15T01:54:57;7.33;;;3.33;;
9904;SDS011;4991;43.566;27.820;2023-03-15T01:57:36;4.97;;;3.27;;
9904;SDS011;4991;43.566;27.820;2023-03-15T02:02:43;5.03;;;3.80;;
9904;SDS011;4991;43.566;27.820;2023-03-15T02:05:16;6.93;;;4.10;;
9904;SDS011;4991;43.566;27.820;2023-03-15T02:07:46;6.23;;;3.30;;
9904;SDS011;4991;43.566;27.820;2023-03-15T02:10:19;4.67;;;3.73;;
9904;SDS011;4991;43.566;27.820;2023-03-15T02:12:50;8.83;;;4.13;;
9904;SDS011;4991;43.566;27.820;2023-03-15T02:15:17;6.10;;;3.87;;
9904;SDS011;4991;43.566;27.820;2023-03-15T02:17:44;8.93;;;4.20;;
9904;SDS011;4991;43.566;27.820;2023-03-15T02:22:57;5.80;;;4.27;;
9904;SDS011;4991;43.566;27.820;2023-03-15T02:28:00;5.10;;;4.50;;
9904;SDS011;4991;43.566;27.820;2023-03-15T02:30:27;4.97;;;3.73;;
9904;SDS011;4991;43.566;27.820;2023-03-15T02:32:53;6.33;;;4.10;;
9904;SDS011;4991;43.566;27.820;2023-03-15T02:35:23;6.60;;;4.37;;
9904;SDS011;4991;43.566;27.820;2023-03-15T02:37:50;5.03;;;3.80;;
9904;SDS011;4991;43.566;27.820;2023-03-15T02:40:20;5.50;;;3.67;;
9904;SDS011;4991;43.566;27.820;2023-03-15T02:42:50;8.40;;;4.30;;
9904;SDS011;4991;43.566;27.820;2023-03-15T02:45:20;8.33;;;4.00;;
9904;SDS011;4991;43.566;27.820;2023-03-15T02:47:46;15.83;;;5.23;;
9904;SDS011;4991;43.566;27.820;2023-03-15T02:50:13;12.07;;;4.60;;
9904;SDS011;4991;43.566;27.820;2023-03-15T02:52:39;6.57;;;4.10;;
9904;SDS011;4991;43.566;27.820;2023-03-15T02:55:05;5.97;;;4.27;;
9904;SDS011;4991;43.566;27.820;2023-03-15T02:57:32;5.80;;;4.10;;
9904;SDS011;4991;43.566;27.820;2023-03-15T02:59:57;7.83;;;4.57;;
9904;SDS011;4991;43.566;27.820;2023-03-15T03:02:24;7.30;;;4.00;;
9904;SDS011;4991;43.566;27.820;2023-03-15T03:04:50;7.43;;;4.50;;
9904;SDS011;4991;43.566;27.820;2023-03-15T03:07:17;8.50;;;4.77;;
9904;SDS011;4991;43.566;27.820;2023-03-15T03:09:43;7.93;;;4.40;;
9904;SDS011;4991;43.566;27.820;2023-03-15T03:12:09;6.87;;;4.47;;
9904;SDS011;4991;43.566;27.820;2023-03-15T03:14:35;8.97;;;4.50;;
9904;SDS011;4991;43.566;27.820;2023-03-15T03:17:00;6.97;;;4.43;;
9904;SDS011;4991;43.566;27.820;2023-03-15T03:19:26;6.33;;;4.20;;
9904;SDS011;4991;43.566;27.820;2023-03-15T03:21:52;6.40;;;4.37;;
9904;SDS011;4991;43.566;27.820;2023-03-15T03:24:19;8.20;;;4.53;;
9904;SDS011;4991;43.566;27.820;2023-03-15T03:26:45;8.10;;;4.20;;
9904;SDS011;4991;43.566;27.820;2023-03-15T03:29:10;10.37;;;4.93;;
9904;SDS011;4991;43.566;27.820;2023-03-15T03:31:40;9.00;;;4.63;;
9904;SDS011;4991;43.566;27.820;2023-03-15T03:34:06;7.57;;;4.87;;
9904;SDS011;4991;43.566;27.820;2023-03-15T03:36:34;7.97;;;5.10;;
9904;SDS011;4991;43.566;27.820;2023-03-15T03:38:59;12.90;;;5.07;;
9904;SDS011;4991;43.566;27.820;2023-03-15T03:41:26;11.67;;;5.90;;
9904;SDS011;4991;43.566;27.820;2023-03-15T03:43:51;9.57;;;4.80;;
9904;SDS011;4991;43.566;27.820;2023-03-15T03:46:17;9.40;;;5.57;;
9904;SDS011;4991;43.566;27.820;2023-03-15T03:48:43;10.87;;;6.13;;
9904;SDS011;4991;43.566;27.820;2023-03-15T03:51:08;7.13;;;4.80;;
9904;SDS011;4991;43.566;27.820;2023-03-15T03:53:34;12.73;;;5.17;;
9904;SDS011;4991;43.566;27.820;2023-03-15T03:55:59;9.40;;;5.27;;
9904;SDS011;4991;43.566;27.820;2023-03-15T03:58:28;10.90;;;5.33;;
9904;SDS011;4991;43.566;27.820;2023-03-15T04:00:54;7.23;;;5.40;;
9904;SDS011;4991;43.566;27.820;2023-03-15T04:03:19;8.73;;;5.57;;
9904;SDS011;4991;43.566;27.820;2023-03-15T04:05:54;13.20;;;5.77;;
9904;SDS011;4991;43.566;27.820;2023-03-15T04:08:21;10.20;;;5.13;;
9904;SDS011;4991;43.566;27.820;2023-03-15T04:10:52;11.40;;;5.13;;
9904;SDS011;4991;43.566;27.820;2023-03-15T04:13:19;7.67;;;5.30;;
9904;SDS011;4991;43.566;27.820;2023-03-15T04:15:45;6.57;;;4.23;;
9904;SDS011;4991;43.566;27.820;2023-03-15T04:18:11;10.93;;;5.00;;
9904;SDS011;4991;43.566;27.820;2023-03-15T04:20:38;9.17;;;5.43;;
9904;SDS011;4991;43.566;27.820;2023-03-15T04:23:03;9.20;;;4.73;;
9904;SDS011;4991;43.566;27.820;2023-03-15T04:25:31;8.57;;;4.27;;
9904;SDS011;4991;43.566;27.820;2023-03-15T04:27:57;10.20;;;3.83;;
9904;SDS011;4991;43.566;27.820;2023-03-15T04:30:26;7.50;;;5.10;;
9904;SDS011;4991;43.566;27.820;2023-03-15T04:32:54;6.97;;;4.30;;
9904;SDS011;4991;43.566;27.820;2023-03-15T04:35:26;6.97;;;4.30;;
9904;SDS011;4991;43.566;27.820;2023-03-15T04:37:53;9.70;;;4.40;;
9904;SDS011;4991;43.566;27.820;2023-03-15T04:40:20;8.07;;;4.73;;
9904;SDS011;4991;43.566;27.820;2023-03-15T04:42:51;9.47;;;4.60;;
9904;SDS011;4991;43.566;27.820;2023-03-15T04:45:24;12.67;;;4.83;;
9904;SDS011;4991;43.566;27.820;2023-03-15T04:47:51;13.83;;;6.20;;
9904;SDS011;4991;43.566;27.820;2023-03-15T04:50:18;11.13;;;6.43;;
9904;SDS011;4991;43.566;27.820;2023-03-15T04:52:44;10.67;;;5.77;;
9904;SDS011;4991;43.566;27.820;2023-03-15T04:55:10;7.03;;;5.03;;
9904;SDS011;4991;43.566;27.820;2023-03-15T04:57:36;18.03;;;6.07;;
9904;SDS011;4991;43.566;27.820;2023-03-15T05:00:02;10.77;;;5.97;;
9904;SDS011;4991;43.566;27.820;2023-03-15T05:02:32;15.70;;;6.30;;
9904;SDS011;4991;43.566;27.820;2023-03-15T05:05:00;13.30;;;6.23;;
9904;SDS011;4991;43.566;27.820;2023-03-15T05:07:25;10.63;;;4.77;;
9904;SDS011;4991;43.566;27.820;2023-03-15T05:09:51;10.77;;;5.13;;
9904;SDS011;4991;43.566;27.820;2023-03-15T05:12:17;10.97;;;4.33;;
9904;SDS011;4991;43.566;27.820;2023-03-15T05:14:42;9.03;;;5.10;;
9904;SDS011;4991;43.566;27.820;2023-03-15T05:17:08;10.60;;;5.13;;
9904;SDS011;4991;43.566;27.820;2023-03-15T05:19:34;10.33;;;5.37;;
9904;SDS011;4991;43.566;27.820;2023-03-15T05:22:00;8.43;;;5.90;;
9904;SDS011;4991;43.566;27.820;2023-03-15T05:24:27;16.80;;;6.07;;
9904;SDS011;4991;43.566;27.820;2023-03-15T05:26:53;6.67;;;5.27;;
9904;SDS011;4991;43.566;27.820;2023-03-15T05:29:20;13.37;;;5.60;;
9904;SDS011;4991;43.566;27.820;2023-03-15T05:31:46;9.20;;;4.83;;
9904;SDS011;4991;43.566;27.820;2023-03-15T05:34:12;7.23;;;4.63;;
9904;SDS011;4991;43.566;27.820;2023-03-15T05:36:38;7.20;;;5.33;;
9904;SDS011;4991;43.566;27.820;2023-03-15T05:39:04;7.93;;;4.30;;
9904;SDS011;4991;43.566;27.820;2023-03-15T05:41:30;11.87;;;4.57;;
9904;SDS011;4991;43.566;27.820;2023-03-15T05:43:56;11.67;;;5.43;;
9904;SDS011;4991;43.566;27.820;2023-03-15T05:46:22;8.30;;;4.27;;
9904;SDS011;4991;43.566;27.820;2023-03-15T05:48:47;12.67;;;5.67;;
9904;SDS011;4991;43.566;27.820;2023-03-15T05:51:13;9.13;;;4.90;;
9904;SDS011;4991;43.566;27.820;2023-03-15T05:53:39;5.40;;;4.10;;
9904;SDS011;4991;43.566;27.820;2023-03-15T05:56:06;8.57;;;4.97;;
9904;SDS011;4991;43.566;27.820;2023-03-15T05:58:32;10.63;;;5.20;;
9904;SDS011;4991;43.566;27.820;2023-03-15T06:00:58;6.27;;;5.33;;
9904;SDS011;4991;43.566;27.820;2023-03-15T06:03:26;7.30;;;4.90;;
9904;SDS011;4991;43.566;27.820;2023-03-15T06:05:52;5.10;;;3.90;;
9904;SDS011;4991;43.566;27.820;2023-03-15T06:08:18;8.97;;;3.90;;
9904;SDS011;4991;43.566;27.820;2023-03-15T06:10:44;6.50;;;3.23;;
9904;SDS011;4991;43.566;27.820;2023-03-15T06:13:10;13.37;;;4.17;;
9904;SDS011;4991;43.566;27.820;2023-03-15T06:15:35;8.03;;;3.83;;
9904;SDS011;4991;43.566;27.820;2023-03-15T06:18:01;13.30;;;4.43;;
9904;SDS011;4991;43.566;27.820;2023-03-15T06:20:26;10.77;;;6.67;;
9904;SDS011;4991;43.566;27.820;2023-03-15T06:22:52;6.10;;;3.77;;
9904;SDS011;4991;43.566;27.820;2023-03-15T06:25:18;6.47;;;3.33;;
9904;SDS011;4991;43.566;27.820;2023-03-15T06:27:43;9.97;;;3.83;;
9904;SDS011;4991;43.566;27.820;2023-03-15T06:30:09;5.13;;;3.43;;
9904;SDS011;4991;43.566;27.820;2023-03-15T06:32:35;8.07;;;3.67;;
9904;SDS011;4991;43.566;27.820;2023-03-15T06:35:01;5.03;;;3.33;;
9904;SDS011;4991;43.566;27.820;2023-03-15T06:37:27;6.63;;;3.90;;
9904;SDS011;4991;43.566;27.820;2023-03-15T06:39:52;6.30;;;3.93;;
9904;SDS011;4991;43.566;27.820;2023-03-15T06:42:18;7.33;;;3.80;;
9904;SDS011;4991;43.566;27.820;2023-03-15T06:44:44;16.10;;;5.40;;
9904;SDS011;4991;43.566;27.820;2023-03-15T06:47:10;6.37;;;3.53;;
9904;SDS011;4991;43.566;27.820;2023-03-15T06:49:37;8.90;;;4.43;;
9904;SDS011;4991;43.566;27.820;2023-03-15T06:52:03;10.70;;;3.57;;
9904;SDS011;4991;43.566;27.820;2023-03-15T06:54:29;9.47;;;3.50;;
9904;SDS011;4991;43.566;27.820;2023-03-15T06:56:55;6.33;;;3.10;;
9904;SDS011;4991;43.566;27.820;2023-03-15T06:59:21;7.90;;;3.23;;
9904;SDS011;4991;43.566;27.820;2023-03-15T07:01:47;13.97;;;4.33;;
9904;SDS011;4991;43.566;27.820;2023-03-15T07:04:13;8.97;;;3.80;;
9904;SDS011;4991;43.566;27.820;2023-03-15T07:06:39;8.30;;;3.83;;
9904;SDS011;4991;43.566;27.820;2023-03-15T07:09:05;8.60;;;3.77;;
9904;SDS011;4991;43.566;27.820;2023-03-15T07:11:31;9.53;;;3.53;;
9904;SDS011;4991;43.566;27.820;2023-03-15T07:13:57;5.03;;;3.13;;
9904;SDS011;4991;43.566;27.820;2023-03-15T07:16:22;6.30;;;2.93;;
9904;SDS011;4991;43.566;27.820;2023-03-15T07:18:49;6.67;;;2.77;;
9904;SDS011;4991;43.566;27.820;2023-03-15T07:21:14;8.10;;;3.23;;
9904;SDS011;4991;43.566;27.820;2023-03-15T07:23:40;9.60;;;2.83;;
9904;SDS011;4991;43.566;27.820;2023-03-15T07:26:06;6.60;;;2.30;;
9904;SDS011;4991;43.566;27.820;2023-03-15T07:28:32;5.37;;;2.70;;
9904;SDS011;4991;43.566;27.820;2023-03-15T07:30:59;5.53;;;2.90;;
9904;SDS011;4991;43.566;27.820;2023-03-15T07:33:26;4.80;;;2.67;;
9904;SDS011;4991;43.566;27.820;2023-03-15T07:35:53;5.10;;;2.63;;
9904;SDS011;4991;43.566;27.820;2023-03-15T07:38:19;6.80;;;2.50;;
9904;SDS011;4991;43.566;27.820;2023-03-15T07:40:49;4.63;;;2.70;;
9904;SDS011;4991;43.566;27.820;2023-03-15T07:43:14;10.03;;;3.20;;
9904;SDS011;4991;43.566;27.820;2023-03-15T07:45:40;4.60;;;2.10;;
9904;SDS011;4991;43.566;27.820;2023-03-15T07:48:07;10.13;;;3.30;;
9904;SDS011;4991;43.566;27.820;2023-03-15T07:50:32;7.07;;;2.27;;
9904;SDS011;4991;43.566;27.820;2023-03-15T07:52:58;5.87;;;2.67;;
9904;SDS011;4991;43.566;27.820;2023-03-15T07:55:24;10.00;;;2.43;;
9904;SDS011;4991;43.566;27.820;2023-03-15T07:57:50;4.87;;;1.97;;
9904;SDS011;4991;43.566;27.820;2023-03-15T08:00:16;7.87;;;2.67;;
9904;SDS011;4991;43.566;27.820;2023-03-15T08:02:42;7.13;;;2.30;;
9904;SDS011;4991;43.566;27.820;2023-03-15T08:05:09;6.60;;;2.40;;
9904;SDS011;4991;43.566;27.820;2023-03-15T08:07:35;4.80;;;2.43;;
9904;SDS011;4991;43.566;27.820;2023-03-15T08:10:02;6.10;;;3.13;;
9904;SDS011;4991;43.566;27.820;2023-03-15T08:12:44;6.67;;;2.57;;
9904;SDS011;4991;43.566;27.820;2023-03-15T08:15:10;4.03;;;2.07;;
9904;SDS011;4991;43.566;27.820;2023-03-15T08:17:39;6.80;;;2.10;;
9904;SDS011;4991;43.566;27.820;2023-03-15T08:20:07;5.03;;;2.20;;
9904;SDS011;4991;43.566;27.820;2023-03-15T08:22:36;9.60;;;2.37;;
9904;SDS011;4991;43.566;27.820;2023-03-15T08:25:03;5.10;;;2.30;;
9904;SDS011;4991;43.566;27.820;2023-03-15T08:27:29;7.17;;;2.03;;
9904;SDS011;4991;43.566;27.820;2023-03-15T08:29:55;7.13;;;2.70;;
9904;SDS011;4991;43.566;27.820;2023-03-15T08:32:21;7.73;;;3.07;;
9904;SDS011;4991;43.566;27.820;2023-03-15T08:34:47;6.30;;;2.57;;
9904;SDS011;4991;43.566;27.820;2023-03-15T08:37:12;18.53;;;3.10;;
9904;SDS011;4991;43.566;27.820;2023-03-15T08:39:38;5.73;;;2.60;;
9904;SDS011;4991;43.566;27.820;2023-03-15T08:42:05;5.37;;;2.30;;
9904;SDS011;4991;43.566;27.820;2023-03-15T08:44:31;9.33;;;2.00;;
9904;SDS011;4991;43.566;27.820;2023-03-15T08:46:57;4.13;;;2.00;;
9904;SDS011;4991;43.566;27.820;2023-03-15T08:49:23;10.23;;;3.00;;
9904;SDS011;4991;43.566;27.820;2023-03-15T08:51:48;5.17;;;3.20;;
9904;SDS011;4991;43.566;27.820;2023-03-15T08:54:14;7.37;;;2.80;;
9904;SDS011;4991;43.566;27.820;2023-03-15T08:56:40;7.03;;;2.77;;
9904;SDS011;4991;43.566;27.820;2023-03-15T08:59:07;5.67;;;2.27;;
9904;SDS011;4991;43.566;27.820;2023-03-15T09:01:33;5.43;;;2.23;;
9904;SDS011;4991;43.566;27.820;2023-03-15T09:03:59;5.87;;;2.10;;
9904;SDS011;4991;43.566;27.820;2023-03-15T09:06:26;7.17;;;2.60;;
9904;SDS011;4991;43.566;27.820;2023-03-15T09:08:53;6.23;;;2.63;;
9904;SDS011;4991;43.566;27.820;2023-03-15T09:11:19;7.00;;;2.63;;
9904;SDS011;4991;43.566;27.820;2023-03-15T09:13:46;7.23;;;2.13;;
9904;SDS011;4991;43.566;27.820;2023-03-15T09:16:11;4.50;;;2.47;;
9904;SDS011;4991;43.566;27.820;2023-03-15T09:18:37;5.23;;;2.67;;
9904;SDS011;4991;43.566;27.820;2023-03-15T09:21:05;4.07;;;2.33;;
9904;SDS011;4991;43.566;27.820;2023-03-15T09:23:31;3.73;;;2.00;;
9904;SDS011;4991;43.566;27.820;2023-03-15T09:25:57;7.23;;;2.73;;
9904;SDS011;4991;43.566;27.820;2023-03-15T09:28:22;8.53;;;2.50;;
9904;SDS011;4991;43.566;27.820;2023-03-15T09:30:49;11.53;;;2.77;;
9904;SDS011;4991;43.566;27.820;2023-03-15T09:33:15;3.90;;;2.30;;
9904;SDS011;4991;43.566;27.820;2023-03-15T09:35:41;10.60;;;2.60;;
9904;SDS011;4991;43.566;27.820;2023-03-15T09:38:07;8.10;;;2.87;;
9904;SDS011;4991;43.566;27.820;2023-03-15T09:40:33;6.70;;;2.60;;
9904;SDS011;4991;43.566;27.820;2023-03-15T09:48:08;5.97;;;2.60;;
9904;SDS011;4991;43.566;27.820;2023-03-15T09:50:47;7.50;;;2.83;;
9904;SDS011;4991;43.566;27.820;2023-03-15T09:55:45;19.27;;;3.60;;
9904;SDS011;4991;43.566;27.820;2023-03-15T09:58:23;5.27;;;2.77;;
9904;SDS011;4991;43.566;27.820;2023-03-15T10:00:57;7.53;;;3.30;;
9904;SDS011;4991;43.566;27.820;2023-03-15T10:06:16;10.53;;;2.97;;
9904;SDS011;4991;43.566;27.820;2023-03-15T10:08:45;5.73;;;2.87;;
9904;SDS011;4991;43.566;27.820;2023-03-15T10:16:43;8.53;;;3.30;;
9904;SDS011;4991;43.566;27.820;2023-03-15T10:24:49;7.70;;;3.67;;
9904;SDS011;4991;43.566;27.820;2023-03-15T10:27:37;8.70;;;2.87;;
9904;SDS011;4991;43.566;27.820;2023-03-15T10:30:17;6.53;;;3.67;;
9904;SDS011;4991;43.566;27.820;2023-03-15T10:32:46;8.53;;;4.17;;
9904;SDS011;4991;43.566;27.820;2023-03-15T10:35:20;11.63;;;4.77;;
9904;SDS011;4991;43.566;27.820;2023-03-15T10:37:46;7.23;;;4.67;;
9904;SDS011;4991;43.566;27.820;2023-03-15T10:40:12;7.03;;;4.47;;
9904;SDS011;4991;43.566;27.820;2023-03-15T10:42:41;6.97;;;4.13;;
9904;SDS011;4991;43.566;27.820;2023-03-15T10:45:19;13.70;;;5.40;;
9904;SDS011;4991;43.566;27.820;2023-03-15T10:47:49;7.70;;;5.03;;
9904;SDS011;4991;43.566;27.820;2023-03-15T10:50:24;6.93;;;4.43;;
9904;SDS011;4991;43.566;27.820;2023-03-15T10:52:56;12.07;;;6.33;;
9904;SDS011;4991;43.566;27.820;2023-03-15T10:55:33;6.63;;;5.07;;
9904;SDS011;4991;43.566;27.820;2023-03-15T11:01:21;10.17;;;6.40;;
9904;SDS011;4991;43.566;27.820;2023-03-15T11:03:38;18.07;;;5.70;;
9904;SDS011;4991;43.566;27.820;2023-03-15T11:06:27;11.97;;;6.40;;
9904;SDS011;4991;43.566;27.820;2023-03-15T11:08:53;12.43;;;5.97;;
9904;SDS011;4991;43.566;27.820;2023-03-15T11:14:46;10.10;;;6.23;;
9904;SDS011;4991;43.566;27.820;2023-03-15T11:17:19;7.07;;;6.33;;
9904;SDS011;4991;43.566;27.820;2023-03-15T11:19:57;11.37;;;7.20;;
9904;SDS011;4991;43.566;27.820;2023-03-15T11:22:34;11.33;;;7.63;;
9904;SDS011;4991;43.566;27.820;2023-03-15T11:24:59;8.37;;;6.80;;
9904;SDS011;4991;43.566;27.820;2023-03-15T11:27:26;9.57;;;8.00;;
9904;SDS011;4991;43.566;27.820;2023-03-15T11:29:54;9.53;;;6.83;;
9904;SDS011;4991;43.566;27.820;2023-03-15T11:32:25;10.90;;;7.43;;
9904;SDS011;4991;43.566;27.820;2023-03-15T11:34:57;11.10;;;8.87;;
9904;SDS011;4991;43.566;27.820;2023-03-15T11:40:11;13.30;;;8.37;;
9904;SDS011;4991;43.566;27.820;2023-03-15T11:48:00;13.73;;;8.30;;
9904;SDS011;4991;43.566;27.820;2023-03-15T11:50:35;14.53;;;7.30;;
9904;SDS011;4991;43.566;27.820;2023-03-15T11:53:00;10.43;;;7.63;;
9904;SDS011;4991;43.566;27.820;2023-03-15T11:55:31;11.23;;;7.87;;
9904;SDS011;4991;43.566;27.820;2023-03-15T11:57:57;17.77;;;9.30;;
9904;SDS011;4991;43.566;27.820;2023-03-15T12:00:59;10.23;;;8.20;;
9904;SDS011;4991;43.566;27.820;2023-03-15T12:08:50;7.80;;;7.00;;
9904;SDS011;4991;43.566;27.820;2023-03-15T12:16:40;9.33;;;7.00;;
9904;SDS011;4991;43.566;27.820;2023-03-15T12:19:10;9.20;;;6.40;;
9904;SDS011;4991;43.566;27.820;2023-03-15T12:21:43;7.63;;;6.83;;
9904;SDS011;4991;43.566;27.820;2023-03-15T12:24:30;9.67;;;6.63;;
9904;SDS011;4991;43.566;27.820;2023-03-15T12:27:02;10.97;;;6.90;;
9904;SDS011;4991;43.566;27.820;2023-03-15T12:29:39;8.37;;;6.37;;
9904;SDS011;4991;43.566;27.820;2023-03-15T12:32:10;10.10;;;6.93;;
9904;SDS011;4991;43.566;27.820;2023-03-15T12:34:48;9.73;;;6.27;;
9904;SDS011;4991;43.566;27.820;2023-03-15T12:45:43;8.73;;;5.83;;
9904;SDS011;4991;43.566;27.820;2023-03-15T12:58:45;15.43;;;6.97;;
9904;SDS011;4991;43.566;27.820;2023-03-15T13:01:15;7.47;;;6.73;;
9904;SDS011;4991;43.566;27.820;2023-03-15T13:03:42;7.97;;;6.50;;
9904;SDS011;4991;43.566;27.820;2023-03-15T13:06:27;7.97;;;6.90;;
9904;SDS011;4991;43.566;27.820;2023-03-15T13:12:00;11.40;;;6.73;;
9904;SDS011;4991;43.566;27.820;2023-03-15T13:14:41;10.33;;;7.17;;
9904;SDS011;4991;43.566;27.820;2023-03-15T13:17:28;8.40;;;6.87;;
9904;SDS011;4991;43.566;27.820;2023-03-15T13:28:39;12.40;;;7.00;;
9904;SDS011;4991;43.566;27.820;2023-03-15T13:33:45;12.83;;;6.73;;
9904;SDS011;4991;43.566;27.820;2023-03-15T13:36:15;10.53;;;6.50;;
9904;SDS011;4991;43.566;27.820;2023-03-15T13:38:48;13.37;;;8.60;;
9904;SDS011;4991;43.566;27.820;2023-03-15T13:41:28;10.73;;;7.97;;
9904;SDS011;4991;43.566;27.820;2023-03-15T13:43:55;8.80;;;7.60;;
9904;SDS011;4991;43.566;27.820;2023-03-15T13:46:24;11.77;;;8.37;;
9904;SDS011;4991;43.566;27.820;2023-03-15T13:48:52;13.20;;;7.70;;
9904;SDS011;4991;43.566;27.820;2023-03-15T13:51:30;9.93;;;7.90;;
9904;SDS011;4991;43.566;27.820;2023-03-15T13:56:37;16.40;;;7.83;;
9904;SDS011;4991;43.566;27.820;2023-03-15T13:59:09;13.30;;;8.23;;
9904;SDS011;4991;43.566;27.820;2023-03-15T14:01:37;12.20;;;8.17;;
9904;SDS011;4991;43.566;27.820;2023-03-15T14:04:08;14.30;;;8.13;;
9904;SDS011;4991;43.566;27.820;2023-03-15T14:06:39;8.40;;;7.30;;
9904;SDS011;4991;43.566;27.820;2023-03-15T14:09:09;11.73;;;8.10;;
9904;SDS011;4991;43.566;27.820;2023-03-15T14:11:41;13.30;;;7.57;;
9904;SDS011;4991;43.566;27.820;2023-03-15T14:16:51;9.77;;;7.20;;
9904;SDS011;4991;43.566;27.820;2023-03-15T14:19:25;10.43;;;8.70;;
9904;SDS011;4991;43.566;27.820;2023-03-15T14:21:56;14.20;;;9.00;;
9904;SDS011;4991;43.566;27.820;2023-03-15T14:24:36;12.97;;;7.10;;
9904;SDS011;4991;43.566;27.820;2023-03-15T14:27:05;10.80;;;8.67;;
9904;SDS011;4991;43.566;27.820;2023-03-15T14:29:34;12.17;;;8.70;;
9904;SDS011;4991;43.566;27.820;2023-03-15T14:32:11;11.63;;;8.87;;
9904;SDS011;4991;43.566;27.820;2023-03-15T14:35:06;10.83;;;7.87;;
9904;SDS011;4991;43.566;27.820;2023-03-15T14:37:45;12.37;;;8.23;;
9904;SDS011;4991;43.566;27.820;2023-03-15T14:40:18;14.03;;;8.03;;
9904;SDS011;4991;43.566;27.820;2023-03-15T14:42:48;13.33;;;7.27;;
9904;SDS011;4991;43.566;27.820;2023-03-15T14:45:15;19.30;;;9.87;;
9904;SDS011;4991;43.566;27.820;2023-03-15T14:47:51;15.13;;;9.20;;
9904;SDS011;4991;43.566;27.820;2023-03-15T14:50:19;10.33;;;7.10;;
9904;SDS011;4991;43.566;27.820;2023-03-15T14:52:46;12.83;;;8.67;;
9904;SDS011;4991;43.566;27.820;2023-03-15T14:55:23;12.70;;;9.43;;
9904;SDS011;4991;43.566;27.820;2023-03-15T14:57:53;14.63;;;9.70;;
9904;SDS011;4991;43.566;27.820;2023-03-15T15:00:19;17.40;;;11.03;;
9904;SDS011;4991;43.566;27.820;2023-03-15T15:02:49;14.57;;;10.07;;
9904;SDS011;4991;43.566;27.820;2023-03-15T15:05:20;13.53;;;10.57;;
9904;SDS011;4991;43.566;27.820;2023-03-15T15:07:47;13.37;;;8.07;;
9904;SDS011;4991;43.566;27.820;2023-03-15T15:10:14;15.50;;;9.53;;
9904;SDS011;4991;43.566;27.820;2023-03-15T15:12:40;13.33;;;8.70;;
9904;SDS011;4991;43.566;27.820;2023-03-15T15:15:12;12.27;;;8.37;;
9904;SDS011;4991;43.566;27.820;2023-03-15T15:17:40;14.57;;;9.97;;
9904;SDS011;4991;43.566;27.820;2023-03-15T15:20:05;14.60;;;9.37;;
9904;SDS011;4991;43.566;27.820;2023-03-15T15:22:31;14.17;;;9.83;;
9904;SDS011;4991;43.566;27.820;2023-03-15T15:24:57;17.23;;;10.77;;
9904;SDS011;4991;43.566;27.820;2023-03-15T15:27:22;13.83;;;10.73;;
9904;SDS011;4991;43.566;27.820;2023-03-15T15:29:48;13.53;;;10.40;;
9904;SDS011;4991;43.566;27.820;2023-03-15T15:32:14;14.73;;;11.17;;
9904;SDS011;4991;43.566;27.820;2023-03-15T15:34:39;19.37;;;12.57;;
9904;SDS011;4991;43.566;27.820;2023-03-15T15:37:08;17.00;;;11.17;;
9904;SDS011;4991;43.566;27.820;2023-03-15T15:39:35;19.70;;;12.30;;
9904;SDS011;4991;43.566;27.820;2023-03-15T15:42:01;21.10;;;14.03;;
9904;SDS011;4991;43.566;27.820;2023-03-15T15:44:27;19.03;;;12.73;;
9904;SDS011;4991;43.566;27.820;2023-03-15T15:46:52;19.97;;;14.43;;
9904;SDS011;4991;43.566;27.820;2023-03-15T15:49:18;26.17;;;15.77;;
9904;SDS011;4991;43.566;27.820;2023-03-15T15:51:45;25.63;;;14.70;;
9904;SDS011;4991;43.566;27.820;2023-03-15T15:54:17;20.43;;;12.57;;
9904;SDS011;4991;43.566;27.820;2023-03-15T15:56:50;19.57;;;13.00;;
9904;SDS011;4991;43.566;27.820;2023-03-15T15:59:18;22.30;;;13.27;;
9904;SDS011;4991;43.566;27.820;2023-03-15T16:01:44;18.53;;;13.83;;
9904;SDS011;4991;43.566;27.820;2023-03-15T16:04:13;19.83;;;11.37;;
9904;SDS011;4991;43.566;27.820;2023-03-15T16:06:39;18.50;;;13.07;;
9904;SDS011;4991;43.566;27.820;2023-03-15T16:09:06;20.10;;;13.13;;
9904;SDS011;4991;43.566;27.820;2023-03-15T16:11:33;30.93;;;16.93;;
9904;SDS011;4991;43.566;27.820;2023-03-15T16:13:59;22.43;;;14.77;;
9904;SDS011;4991;43.566;27.820;2023-03-15T16:16:25;25.90;;;16.67;;
9904;SDS011;4991;43.566;27.820;2023-03-15T16:18:51;18.13;;;12.73;;
9904;SDS011;4991;43.566;27.820;2023-03-15T16:24:14;23.33;;;15.53;;
9904;SDS011;4991;43.566;27.820;2023-03-15T16:26:41;22.13;;;16.37;;
9904;SDS011;4991;43.566;27.820;2023-03-15T16:29:13;24.83;;;15.57;;
9904;SDS011;4991;43.566;27.820;2023-03-15T16:31:45;18.77;;;15.37;;
9904;SDS011;4991;43.566;27.820;2023-03-15T16:34:12;25.33;;;13.90;;
9904;SDS011;4991;43.566;27.820;2023-03-15T16:36:39;24.63;;;16.10;;
9904;SDS011;4991;43.566;27.820;2023-03-15T16:39:12;24.90;;;16.43;;
9904;SDS011;4991;43.566;27.820;2023-03-15T16:41:39;24.47;;;18.30;;